Time;durP1;ratioP1;P1;durP2;ratioP2;P2;SDS_P1;SDS_P2;PMS_P1;PMS_P2;Temp;Humidity;BMP_temperature;BMP_pressure;BME280_temperature;BME280_humidity;BME280_pressure;Samples;Min_cycle;Max_cycle;Signal;HPM_P1;HPM_P2
2022/11/01 00:01:03;;;;;;;9.95;3.85;;;;;;;18.97;78.39;100089.75;8256374;28;20034;-52
2022/11/01 00:05:04;;;;;;;13.95;3.83;;;;;;;19.00;78.68;100083.84;8256253;28;20117;-56
2022/11/01 00:09:06;;;;;;;10.15;3.90;;;;;;;18.85;80.59;100064.00;8263497;28;20042;-54
2022/11/01 00:13:06;;;;;;;10.35;4.35;;;;;;;18.45;83.77;100053.91;8253689;28;20049;-54
2022/11/01 00:17:07;;;;;;;10.52;3.55;;;;;;;18.26;84.44;100057.34;8253831;28;20043;-54
2022/11/01 00:21:08;;;;;;;7.82;4.00;;;;;;;18.21;85.34;100054.34;8253647;28;20066;-53
2022/11/01 00:25:09;;;;;;;12.55;3.80;;;;;;;18.24;86.45;100059.41;8254832;28;20042;-54
2022/11/01 00:29:11;;;;;;;10.35;3.80;;;;;;;18.10;86.80;100065.88;8261517;28;20045;-55
2022/11/01 00:33:12;;;;;;;14.63;4.20;;;;;;;18.16;86.80;100051.38;8288604;28;20050;-55
2022/11/01 00:37:12;;;;;;;11.20;4.50;;;;;;;18.21;86.34;100048.88;8287690;28;20038;-54
2022/11/01 00:41:14;;;;;;;10.93;4.13;;;;;;;18.19;86.75;100067.41;8287296;28;20129;-52
2022/11/01 00:45:15;;;;;;;11.85;3.95;;;;;;;18.06;87.29;100061.84;8272484;28;20089;-54
2022/11/01 00:49:16;;;;;;;13.98;4.65;;;;;;;18.09;86.72;100044.19;8256798;28;20039;-55
2022/11/01 00:53:16;;;;;;;13.70;4.15;;;;;;;18.22;85.83;100045.13;8260888;28;20338;-52
2022/11/01 00:57:17;;;;;;;7.80;3.97;;;;;;;18.30;85.42;100058.63;8261751;28;20491;-51
2022/11/01 01:01:18;;;;;;;12.43;4.10;;;;;;;18.20;86.10;100047.19;8255555;28;20043;-55
2022/11/01 01:05:19;;;;;;;9.30;3.97;;;;;;;18.22;85.97;100064.28;8257777;28;20073;-54
2022/11/01 01:09:19;;;;;;;10.20;4.55;;;;;;;18.22;86.21;100061.53;8272046;28;20524;-52
2022/11/01 01:13:20;;;;;;;13.40;3.92;;;;;;;18.14;86.64;100053.47;8261724;28;20034;-54
2022/11/01 01:17:21;;;;;;;6.35;3.38;;;;;;;18.18;86.48;100054.78;8261530;28;20042;-53
2022/11/01 01:21:21;;;;;;;12.35;3.55;;;;;;;18.30;85.86;100055.06;8255468;28;20050;-54
2022/11/01 01:25:23;;;;;;;10.13;3.25;;;;;;;18.52;84.75;100054.81;8261324;28;20125;-54
2022/11/01 01:29:24;;;;;;;8.52;3.53;;;;;;;18.56;85.16;100047.00;8260310;28;20404;-55
2022/11/01 01:33:24;;;;;;;9.63;3.42;;;;;;;18.62;85.50;100041.56;8260063;28;20060;-55
2022/11/01 01:37:25;;;;;;;7.47;2.80;;;;;;;18.68;85.50;100051.72;8258462;28;20531;-54
2022/11/01 01:41:57;;;;;;;9.77;3.75;;;;;;;18.61;86.24;100066.44;8261158;28;20038;-52
2022/11/01 01:45:46;;;;;;;9.30;3.13;;;;;;;18.52;87.57;100073.13;8265811;28;20117;-55
2022/11/01 01:49:49;;;;;;;11.90;3.38;;;;;;;18.38;88.52;100074.06;8258429;28;20045;-54
2022/11/01 01:53:53;;;;;;;7.78;3.08;;;;;;;18.18;90.06;100075.81;8252898;28;20125;-55
2022/11/01 01:57:55;;;;;;;7.15;3.13;;;;;;;18.27;90.01;100080.91;8259789;28;20499;-51
2022/11/01 02:01:57;;;;;;;6.80;3.13;;;;;;;18.24;90.56;100081.31;8275269;28;20148;-54
2022/11/01 02:06:08;;;;;;;8.02;2.85;;;;;;;18.03;92.08;100089.59;8259164;28;20034;-52
2022/11/01 02:10:11;;;;;;;9.55;3.53;;;;;;;17.98;92.95;100072.06;8257698;28;20054;-53
2022/11/01 02:14:12;;;;;;;6.45;3.50;;;;;;;17.99;92.93;100055.47;8258963;28;20042;-55
2022/11/01 02:18:26;;;;;;;10.30;3.40;;;;;;;18.03;93.03;100055.94;8257633;28;20062;-53
2022/11/01 02:22:57;;;;;;;8.13;3.42;;;;;;;18.02;93.67;100060.53;8257654;28;20726;-54
2022/11/01 02:27:12;;;;;;;5.68;3.00;;;;;;;18.06;93.54;100069.22;8256468;28;20041;-55
2022/11/01 02:31:52;;;;;;;6.97;3.28;;;;;;;18.07;93.75;100058.06;8246112;28;20097;-56
2022/11/01 02:36:02;;;;;;;9.95;3.22;;;;;;;18.13;93.17;100051.78;8226039;28;20039;-55
2022/11/01 02:40:12;;;;;;;6.03;2.78;;;;;;;18.28;92.37;100044.31;8241428;28;20031;-53
2022/11/01 02:44:21;;;;;;;8.93;2.95;;;;;;;18.36;91.49;100057.81;8227366;28;20536;-56
2022/11/01 02:48:23;;;;;;;9.98;3.35;;;;;;;18.31;91.79;100043.91;8242853;28;20457;-56
2022/11/01 02:52:27;;;;;;;7.40;3.28;;;;;;;18.05;93.40;100046.47;8257274;28;20056;-56
2022/11/01 02:56:29;;;;;;;6.68;2.83;;;;;;;17.90;94.71;100051.19;8258613;28;20048;-53
2022/11/01 03:00:33;;;;;;;5.80;3.22;;;;;;;17.87;94.95;100050.75;8257879;28;20065;-56
2022/11/01 03:04:34;;;;;;;;;;;;;;;17.94;94.61;100052.50;8258947;28;20045;-56
2022/11/01 03:08:41;;;;;;;8.13;2.90;;;;;;;18.13;93.55;100062.72;8256316;28;20426;-54
2022/11/01 03:12:54;;;;;;;7.53;2.60;;;;;;;18.26;92.63;100059.22;8249874;28;20054;-54
2022/11/01 03:17:20;;;;;;;8.25;3.35;;;;;;;18.33;91.95;100069.16;8255667;28;20069;-55
2022/11/01 03:21:25;;;;;;;8.32;2.90;;;;;;;18.34;91.88;100064.56;8255340;28;20042;-54
2022/11/01 03:25:49;;;;;;;13.45;3.17;;;;;;;18.33;91.74;100069.16;8261419;28;20041;-56
2022/11/01 03:29:57;;;;;;;9.10;3.08;;;;;;;18.34;91.47;100070.88;8255478;28;20042;-54
2022/11/01 03:34:03;;;;;;;8.73;3.22;;;;;;;18.37;91.28;100080.59;8253263;28;20495;-56
2022/11/01 03:38:09;;;;;;;7.30;2.80;;;;;;;18.47;90.54;100076.47;8257778;28;20046;-51
2022/11/01 03:42:16;;;;;;;4.95;2.50;;;;;;;18.55;89.70;100084.50;8257189;28;20038;-53
2022/11/01 03:46:17;;;;;;;5.18;2.60;;;;;;;18.57;89.62;100076.94;8254880;28;20093;-52
2022/11/01 03:50:22;;;;;;;7.63;2.72;;;;;;;18.66;89.21;100081.19;8256470;28;20039;-51
2022/11/01 03:54:23;;;;;;;11.40;2.97;;;;;;;18.68;88.85;100090.06;8256901;28;20046;-51
2022/11/01 03:58:23;;;;;;;8.60;2.70;;;;;;;18.56;89.74;100097.16;8257368;28;20052;-51
2022/11/01 04:02:24;;;;;;;5.85;2.53;;;;;;;18.45;90.35;100114.13;8256989;28;20054;-50
2022/11/01 04:06:25;;;;;;;10.70;3.88;;;;;;;18.31;91.13;100115.06;8255559;28;20034;-50
2022/11/01 04:10:28;;;;;;;6.80;3.08;;;;;;;18.24;91.58;100119.63;8256229;28;20176;-50
2022/11/01 04:23:09;;;;;;;9.38;2.58;;;;;;;18.25;91.48;100145.97;8256506;28;20046;-51
2022/11/01 04:27:10;;;;;;;7.28;2.85;;;;;;;18.27;91.17;100146.59;8254113;28;20042;-53
2022/11/01 04:31:11;;;;;;;7.32;2.90;;;;;;;18.24;91.27;100157.94;8256436;28;20650;-49
2022/11/01 04:35:11;;;;;;;9.85;3.00;;;;;;;18.13;92.11;100163.97;8256107;28;20030;-51
2022/11/01 04:39:12;;;;;;;5.47;2.70;;;;;;;18.11;92.25;100174.25;8256085;28;20526;-50
2022/11/01 04:43:12;;;;;;;6.93;2.70;;;;;;;18.14;91.94;100168.38;8256226;28;20513;-50
2022/11/01 04:47:13;;;;;;;7.55;3.25;;;;;;;18.14;91.94;100176.59;8254088;28;20045;-53
2022/11/01 04:51:14;;;;;;;9.55;2.78;;;;;;;18.05;92.35;100186.00;8255638;28;20335;-50
2022/11/01 04:55:15;;;;;;;5.30;2.67;;;;;;;18.04;92.31;100195.25;8253671;28;20039;-49
2022/11/01 04:59:15;;;;;;;9.15;2.90;;;;;;;18.06;91.96;100204.13;8255752;28;20062;-50
2022/11/01 05:03:16;;;;;;;6.95;2.65;;;;;;;18.03;91.75;100209.13;8254155;28;20125;-49
2022/11/01 05:07:17;;;;;;;7.10;3.15;;;;;;;17.94;92.42;100215.78;8252178;28;20053;-50
2022/11/01 05:11:20;;;;;;;11.25;3.15;;;;;;;17.92;91.97;100207.75;8248511;28;20047;-53
2022/11/01 05:15:21;;;;;;;4.93;2.78;;;;;;;17.91;91.26;100214.28;8270933;28;20047;-50
2022/11/01 05:19:22;;;;;;;4.55;2.35;;;;;;;17.88;90.88;100232.94;8255545;28;20048;-50
2022/11/01 05:23:23;;;;;;;6.03;2.15;;;;;;;17.93;89.67;100234.06;8269819;28;20050;-50
2022/11/01 05:27:23;;;;;;;5.50;2.17;;;;;;;17.83;89.82;100247.22;8252698;28;20081;-52
2022/11/01 05:31:24;;;;;;;9.23;2.85;;;;;;;17.92;88.31;100257.00;8299467;28;20467;-49
2022/11/01 05:35:26;;;;;;;6.80;2.30;;;;;;;17.86;88.51;100260.50;8290932;28;20050;-51
2022/11/01 05:39:26;;;;;;;7.28;2.03;;;;;;;17.81;87.68;100264.88;8266126;28;20438;-52
2022/11/01 05:43:27;;;;;;;6.40;2.35;;;;;;;17.84;85.95;100276.25;8259232;28;20141;-49
2022/11/01 05:47:28;;;;;;;7.13;1.95;;;;;;;17.93;83.50;100280.56;8257947;28;20038;-50
2022/11/01 05:51:28;;;;;;;6.63;2.13;;;;;;;17.97;81.98;100287.38;8258260;28;20490;-50
2022/11/01 05:55:29;;;;;;;6.43;1.92;;;;;;;18.08;80.55;100289.56;8259370;28;20652;-50
2022/11/01 05:59:29;;;;;;;6.70;2.10;;;;;;;18.02;81.01;100284.88;8258781;28;20045;-50
2022/11/01 06:03:31;;;;;;;6.22;1.42;;;;;;;17.91;81.58;100304.53;8259756;28;20053;-50
2022/11/01 06:07:34;;;;;;;6.82;2.00;;;;;;;17.86;81.00;100315.19;8258754;28;20038;-50
2022/11/01 06:11:35;;;;;;;8.45;2.17;;;;;;;17.77;79.78;100324.56;8258420;28;20519;-52
2022/11/01 06:15:35;;;;;;;2.35;1.02;;;;;;;17.84;76.69;100339.16;8259933;28;20403;-50
2022/11/01 06:19:36;;;;;;;4.20;1.30;;;;;;;17.88;72.36;100345.97;8259916;28;20045;-50
2022/11/01 06:23:37;;;;;;;2.13;1.00;;;;;;;17.79;72.38;100355.31;8260194;28;20049;-50
2022/11/01 06:27:37;;;;;;;2.25;1.00;;;;;;;17.58;71.83;100368.91;8256199;28;20096;-50
2022/11/01 06:31:38;;;;;;;5.97;0.70;;;;;;;17.36;72.10;100376.09;8258017;28;20589;-50
2022/11/01 06:35:39;;;;;;;2.63;1.20;;;;;;;17.21;75.44;100385.34;8258870;28;20566;-49
2022/11/01 06:39:39;;;;;;;3.72;1.27;;;;;;;17.15;77.60;100400.59;8258520;28;20046;-49
2022/11/01 06:43:40;;;;;;;4.80;0.88;;;;;;;16.97;74.81;100407.41;8258670;28;20035;-50
2022/11/01 06:47:45;;;;;;;1.67;0.85;;;;;;;16.76;75.02;100420.91;8252392;28;20068;-51
2022/11/01 06:51:46;;;;;;;3.20;0.77;;;;;;;16.55;75.66;100429.78;8258921;28;20039;-50
2022/11/01 06:55:47;;;;;;;6.13;1.38;;;;;;;16.37;75.99;100444.69;8257804;28;20411;-49
2022/11/01 06:59:47;;;;;;;2.83;0.75;;;;;;;16.28;76.13;100456.69;8256645;28;20047;-50
2022/11/01 07:03:50;;;;;;;4.25;1.00;;;;;;;16.14;76.46;100462.88;8252771;28;20039;-50
2022/11/01 07:07:52;;;;;;;4.65;0.98;;;;;;;16.03;76.05;100479.63;8249218;28;20065;-51
2022/11/01 07:11:52;;;;;;;2.10;0.60;;;;;;;15.91;76.26;100500.13;8262342;28;20137;-49
2022/11/01 07:15:53;;;;;;;2.17;0.70;;;;;;;15.83;76.19;100502.88;8250439;28;20065;-49
2022/11/01 07:19:54;;;;;;;4.72;0.80;;;;;;;15.76;76.73;100523.69;8254420;28;20046;-49
2022/11/01 07:23:54;;;;;;;2.85;0.80;;;;;;;15.88;74.00;100538.66;8258009;28;21627;-50
2022/11/01 07:27:55;;;;;;;4.53;0.88;;;;;;;15.87;73.61;100550.59;8249518;28;20149;-52
2022/11/01 07:31:55;;;;;;;3.58;1.00;;;;;;;15.60;77.04;100558.13;8257941;28;20042;-52
2022/11/01 07:35:56;;;;;;;3.88;0.68;;;;;;;15.48;76.31;100554.06;8254359;28;20113;-50
2022/11/01 07:39:57;;;;;;;4.53;1.13;;;;;;;15.73;70.58;100573.13;8255941;28;20048;-49
2022/11/01 07:43:57;;;;;;;7.45;1.20;;;;;;;15.90;69.52;100569.31;8246766;28;20038;-47
2022/11/01 07:48:04;;;;;;;5.70;1.00;;;;;;;15.97;69.13;100575.78;8253924;28;20061;-47
2022/11/01 07:52:05;;;;;;;9.65;1.20;;;;;;;15.98;69.55;100572.03;8246039;28;20132;-50
2022/11/01 07:56:06;;;;;;;9.00;1.17;;;;;;;16.08;67.17;100573.56;8264515;28;20093;-51
2022/11/01 08:00:08;;;;;;;9.27;1.50;;;;;;;16.20;67.55;100576.75;8247206;28;20035;-50
2022/11/01 08:04:15;;;;;;;13.15;1.50;;;;;;;16.22;67.91;100574.72;8238333;28;20047;-50
2022/11/01 08:08:16;;;;;;;8.70;1.50;;;;;;;16.28;66.18;100579.47;8246278;28;20491;-49
2022/11/01 08:12:17;;;;;;;7.55;1.63;;;;;;;16.30;66.63;100578.25;8244946;28;20501;-52
2022/11/01 08:16:17;;;;;;;7.20;1.20;;;;;;;16.50;66.47;100570.53;8243771;28;20430;-49
2022/11/01 08:20:18;;;;;;;6.35;0.80;;;;;;;16.58;65.66;100587.72;8264356;28;20031;-49
2022/11/01 08:24:18;;;;;;;6.22;1.50;;;;;;;16.75;65.77;100589.38;8249418;28;20066;-50
2022/11/01 08:28:19;;;;;;;4.72;1.30;;;;;;;16.75;64.01;100589.38;8252630;28;20042;-49
2022/11/01 08:32:20;;;;;;;6.55;1.08;;;;;;;16.89;63.61;100594.06;8247206;28;20042;-50
2022/11/01 08:36:21;;;;;;;11.05;1.10;;;;;;;16.96;63.10;100586.00;8228818;28;20038;-50
2022/11/01 08:40:21;;;;;;;6.20;1.58;;;;;;;17.02;62.29;100602.50;8244054;28;20038;-50
2022/11/01 08:44:22;;;;;;;5.78;0.80;;;;;;;18.24;59.89;100600.50;8246352;28;20053;-50
2022/11/01 08:48:23;;;;;;;7.57;1.23;;;;;;;20.16;54.74;100603.16;8248198;28;20052;-50
2022/11/01 08:52:24;;;;;;;4.57;1.13;;;;;;;20.96;52.90;100623.53;8234992;28;20046;-50
2022/11/01 08:56:26;;;;;;;6.75;1.50;;;;;;;21.28;51.43;100621.94;8234739;28;20047;-50
2022/11/01 09:00:27;;;;;;;7.82;1.05;;;;;;;21.78;50.45;100640.72;8221651;28;20046;-52
2022/11/01 09:04:28;;;;;;;6.00;0.95;;;;;;;22.44;50.03;100641.53;8237899;28;20077;-50
2022/11/01 09:08:28;;;;;;;6.25;1.10;;;;;;;23.15;49.12;100637.78;8246528;28;20458;-52
2022/11/01 09:12:29;;;;;;;7.78;1.23;;;;;;;23.27;48.72;100649.00;8245490;28;20069;-49
2022/11/01 09:16:31;;;;;;;6.20;1.05;;;;;;;23.13;48.50;100650.94;8253989;28;20042;-50
2022/11/01 09:20:32;;;;;;;6.78;1.17;;;;;;;23.06;48.57;100653.72;8258367;28;20042;-49
2022/11/01 09:24:34;;;;;;;9.15;1.25;;;;;;;23.00;48.69;100660.09;8256357;28;20097;-50
2022/11/01 09:28:35;;;;;;;7.13;1.13;;;;;;;23.25;47.93;100668.53;8251034;28;20522;-49
2022/11/01 09:32:36;;;;;;;4.53;1.10;;;;;;;23.67;47.17;100673.44;8240798;28;20047;-51
2022/11/01 09:36:36;;;;;;;5.30;0.90;;;;;;;24.14;47.22;100674.81;8231514;28;20089;-48
2022/11/01 09:40:44;;;;;;;7.93;1.20;;;;;;;24.30;46.11;100668.72;8273249;28;20454;-48
2022/11/01 09:44:48;;;;;;;4.90;1.02;;;;;;;24.36;46.82;100684.41;8249066;28;20042;-55
2022/11/01 09:48:49;;;;;;;7.32;1.10;;;;;;;24.43;47.29;100686.03;8254187;28;20045;-55
2022/11/01 09:52:51;;;;;;;5.45;0.80;;;;;;;24.40;46.58;100680.13;8258683;28;20381;-56
2022/11/01 09:57:14;;;;;;;5.10;1.10;;;;;;;24.42;47.06;100677.97;8254958;28;20038;-52
2022/11/01 10:01:40;;;;;;;6.25;0.80;;;;;;;24.47;47.12;100681.75;8277005;28;20594;-56
2022/11/01 10:05:59;;;;;;;3.88;1.00;;;;;;;24.84;46.66;100677.16;8253082;28;20101;-55
2022/11/01 10:10:31;;;;;;;5.50;1.10;;;;;;;25.37;46.17;100675.47;8258503;28;20559;-56
2022/11/01 10:15:12;;;;;;;8.75;0.90;;;;;;;25.52;46.29;100686.16;8227068;28;20035;-55
2022/11/01 10:19:16;;;;;;;7.28;0.82;;;;;;;25.24;46.85;100692.22;8255044;28;20416;-56
2022/11/01 10:23:22;;;;;;;7.00;1.10;;;;;;;25.29;46.63;100697.06;8252780;28;20121;-56
2022/11/01 10:28:02;;;;;;;6.65;0.85;;;;;;;24.71;47.08;100699.44;8249317;28;20519;-54
2022/11/01 10:32:04;;;;;;;4.68;0.90;;;;;;;24.58;47.35;100702.28;8219464;28;20046;-56
2022/11/01 10:36:13;;;;;;;7.53;1.10;;;;;;;24.63;46.47;100707.97;8222113;28;20039;-56
2022/11/01 10:40:17;;;;;;;4.57;0.95;;;;;;;24.93;46.42;100708.97;8221896;28;20512;-53
2022/11/01 10:44:40;;;;;;;5.07;1.00;;;;;;;25.12;46.21;100718.97;8235260;28;20037;-54
2022/11/01 10:48:46;;;;;;;6.93;1.15;;;;;;;24.78;46.12;100716.78;8260892;28;20041;-55
2022/11/01 10:52:55;;;;;;;4.50;1.00;;;;;;;25.03;46.13;100706.53;8261239;28;20114;-56
2022/11/01 10:57:02;;;;;;;6.05;1.63;;;;;;;24.98;45.83;100706.38;8261625;28;20070;-55
2022/11/01 11:01:06;;;;;;;6.80;1.20;;;;;;;24.11;46.24;100694.59;8270329;28;20038;-55
2022/11/01 11:05:12;;;;;;;10.57;1.48;;;;;;;23.83;47.75;100699.66;8278991;28;20042;-56
2022/11/01 11:09:29;;;;;;;6.95;1.15;;;;;;;24.64;46.56;100704.16;8259754;28;20050;-54
2022/11/01 11:13:32;;;;;;;5.22;0.98;;;;;;;25.52;45.51;100698.06;8261221;28;20103;-55
2022/11/01 11:17:42;;;;;;;8.70;1.25;;;;;;;25.94;44.56;100691.50;8260311;28;20046;-56
2022/11/01 11:21:43;;;;;;;9.65;1.52;;;;;;;25.89;44.70;100694.13;8259062;28;20034;-54
2022/11/01 11:25:44;;;;;;;4.40;1.25;;;;;;;26.08;44.60;100704.13;8258708;28;20046;-54
2022/11/01 11:29:48;;;;;;;5.35;1.00;;;;;;;26.21;43.94;100697.50;8276087;28;20037;-53
2022/11/01 11:33:56;;;;;;;5.20;1.38;;;;;;;26.42;44.29;100700.59;8293177;28;20038;-56
2022/11/01 11:38:00;;;;;;;7.40;1.00;;;;;;;26.15;44.03;100693.78;8292688;28;20204;-54
2022/11/01 11:42:24;;;;;;;9.88;1.30;;;;;;;25.74;44.42;100690.94;8293359;28;20434;-56
2022/11/01 11:46:25;;;;;;;8.85;1.40;;;;;;;25.92;43.78;100682.56;8264117;28;20046;-56
2022/11/01 11:50:32;;;;;;;6.50;1.20;;;;;;;25.76;43.98;100683.25;8260263;28;20415;-56
2022/11/01 11:54:36;;;;;;;9.73;1.15;;;;;;;23.95;47.46;100684.94;8260770;28;20188;-55
2022/11/01 11:58:40;;;;;;;;;;;;;;;24.54;46.32;100698.28;8259850;28;20495;-56
2022/11/01 12:02:41;;;;;;;5.85;1.42;;;;;;;25.83;44.75;100689.53;8259333;28;19917;-56
2022/11/01 12:06:44;;;;;;;8.75;1.33;;;;;;;25.73;44.73;100683.72;8258489;28;20518;-55
2022/11/01 12:10:45;;;;;;;9.10;1.35;;;;;;;25.93;44.02;100689.81;8260129;28;20570;-56
2022/11/01 12:14:45;;;;;;;6.80;1.42;;;;;;;26.17;44.60;100683.28;8260434;28;20396;-56
2022/11/01 12:19:05;;;;;;;5.90;1.45;;;;;;;25.99;44.00;100677.84;8258574;28;20034;-56
2022/11/01 12:23:15;;;;;;;7.05;1.30;;;;;;;26.38;43.79;100688.25;8259032;28;20037;-55
2022/11/01 12:27:21;;;;;;;9.93;1.98;;;;;;;25.84;44.39;100673.75;8258980;28;20049;-55
2022/11/01 12:31:21;;;;;;;7.40;1.13;;;;;;;25.90;44.30;100673.69;8288121;28;20045;-53
2022/11/01 12:35:29;;;;;;;7.20;1.05;;;;;;;26.03;44.58;100670.72;8292301;28;20077;-55
2022/11/01 12:48:21;;;;;;;5.47;1.30;;;;;;;23.29;48.48;100668.97;8320713;28;20112;-54
2022/11/01 12:52:35;;;;;;;8.40;1.40;;;;;;;21.72;52.43;100669.06;8319302;28;20574;-55
2022/11/01 12:56:36;;;;;;;;;;;;;;;20.82;53.17;100671.22;8317930;28;20048;-54
2022/11/01 13:01:16;;;;;;;6.32;1.23;;;;;;;20.54;53.96;100662.16;8320310;28;19955;-55
2022/11/01 13:05:23;;;;;;;11.45;1.30;;;;;;;20.26;55.99;100675.06;8311784;28;20041;-55
2022/11/01 13:10:01;;;;;;;8.40;1.08;;;;;;;20.19;56.21;100667.81;8318055;28;20104;-53
2022/11/01 13:14:42;;;;;;;5.85;1.27;;;;;;;19.90;55.55;100676.16;8315560;28;20061;-53
2022/11/01 13:18:53;;;;;;;10.00;1.45;;;;;;;19.83;56.53;100669.78;8316451;28;20041;-56
2022/11/01 13:27:32;;;;;;;6.90;1.20;;;;;;;19.39;56.55;100670.78;8353080;27;20849;-53
2022/11/01 13:32:12;;;;;;;7.82;1.27;;;;;;;19.66;56.02;100671.06;8322730;28;20115;-53
2022/11/01 13:36:22;;;;;;;11.50;1.70;;;;;;;19.42;57.23;100664.06;8319352;28;20045;-53
2022/11/01 13:40:36;;;;;;;7.82;1.42;;;;;;;19.46;56.95;100674.47;8318855;28;20057;-49
2022/11/01 13:44:41;;;;;;;;;;;;;;;19.29;57.52;100673.00;8334981;28;20118;-50
2022/11/01 13:49:14;;;;;;;4.15;0.80;;;;;;;19.15;56.66;100672.97;8352831;28;19928;-50
2022/11/01 13:53:44;;;;;;;2.73;0.70;;;;;;;18.99;55.31;100667.72;8352791;28;20517;-50
2022/11/01 13:57:45;;;;;;;9.15;1.13;;;;;;;18.90;56.55;100664.25;8341990;28;20046;-51
2022/11/01 14:01:45;;;;;;;5.80;1.20;;;;;;;18.84;57.07;100670.50;8318982;28;20037;-49
2022/11/01 14:19:11;;;;;;;5.43;0.80;;;;;;;18.78;58.54;100687.69;8406621;27;20444;-52
2022/11/01 14:27:45;;;;;;;7.53;1.50;;;;;;;18.46;59.56;100689.94;8410680;27;20431;-50
2022/11/01 14:31:51;;;;;;;7.13;1.38;;;;;;;18.40;59.53;100697.00;8353879;28;20039;-52
2022/11/01 14:35:56;;;;;;;6.45;1.10;;;;;;;18.29;59.87;100689.22;8352866;28;20064;-49
2022/11/01 14:40:05;;;;;;;12.00;1.98;;;;;;;18.07;60.96;100698.31;8353385;28;20052;-51
2022/11/01 14:44:13;;;;;;;10.43;1.40;;;;;;;17.99;61.03;100703.84;8379956;27;20037;-51
2022/11/01 14:48:27;;;;;;;8.13;1.10;;;;;;;17.89;61.90;100700.50;8415682;27;20098;-50
2022/11/01 14:52:35;;;;;;;9.98;1.17;;;;;;;17.83;61.76;100706.72;8451122;27;20040;-49
2022/11/01 14:56:35;;;;;;;10.88;2.00;;;;;;;17.77;62.44;100707.44;8419016;27;20577;-50
2022/11/01 15:00:36;;;;;;;6.20;1.05;;;;;;;17.69;62.91;100693.84;8364553;27;20402;-49
2022/11/01 15:04:40;;;;;;;5.25;1.08;;;;;;;17.66;62.76;100698.81;8397237;27;20037;-52
2022/11/01 15:08:40;;;;;;;6.85;1.33;;;;;;;17.51;63.61;100701.50;8359880;28;20041;-50
2022/11/01 15:12:49;;;;;;;8.27;1.35;;;;;;;17.39;63.90;100702.91;8352074;28;20116;-49
2022/11/01 15:16:50;;;;;;;9.35;1.23;;;;;;;17.21;65.22;100707.78;8347898;28;20042;-52
2022/11/01 15:20:54;;;;;;;11.68;1.35;;;;;;;17.12;65.13;100706.09;8350006;28;20037;-49
2022/11/01 15:24:58;;;;;;;6.55;1.27;;;;;;;17.08;65.38;100718.44;8416000;27;20039;-51
2022/11/01 15:29:01;;;;;;;6.00;1.10;;;;;;;16.97;65.29;100713.34;8388462;28;20067;-51
2022/11/01 15:33:23;;;;;;;11.63;1.38;;;;;;;16.91;65.33;100714.91;8350795;28;20033;-49
2022/11/01 15:37:29;;;;;;;5.38;1.23;;;;;;;16.84;65.37;100718.53;8370728;28;20037;-52
2022/11/01 15:41:33;;;;;;;8.40;1.30;;;;;;;16.73;65.23;100705.22;8333724;28;20658;-49
2022/11/01 15:45:37;;;;;;;9.50;1.60;;;;;;;16.66;65.96;100710.56;8385596;28;20040;-49
2022/11/01 15:49:50;;;;;;;10.48;1.40;;;;;;;16.53;66.54;100714.84;8395513;28;20565;-49
2022/11/01 15:53:56;;;;;;;9.57;1.30;;;;;;;16.38;67.36;100711.09;8395540;28;20446;-48
2022/11/01 15:58:05;;;;;;;10.18;1.70;;;;;;;16.39;66.77;100708.19;8366692;28;20441;-49
2022/11/01 16:02:18;;;;;;;12.10;1.40;;;;;;;16.31;66.99;100699.19;8362188;28;20037;-49
2022/11/01 16:06:23;;;;;;;7.40;1.45;;;;;;;16.29;66.84;100706.66;8356682;28;20121;-51
2022/11/01 16:10:28;;;;;;;9.50;1.42;;;;;;;16.17;67.46;100708.91;8329015;28;20129;-48
2022/11/01 16:14:31;;;;;;;10.80;1.17;;;;;;;16.06;67.85;100708.38;8327495;28;20038;-50
2022/11/01 16:18:35;;;;;;;11.95;1.13;;;;;;;15.99;68.39;100721.00;8324776;28;20063;-48
2022/11/01 16:22:45;;;;;;;8.80;1.47;;;;;;;15.85;68.67;100714.34;8382836;28;20036;-49
2022/11/01 16:26:51;;;;;;;14.85;1.63;;;;;;;15.82;68.91;100713.84;8393772;28;20469;-49
2022/11/01 16:30:53;;;;;;;7.35;1.30;;;;;;;15.65;69.61;100716.53;8369102;28;20056;-51
2022/11/01 16:34:54;;;;;;;11.40;2.15;;;;;;;15.55;70.37;100729.47;8360848;28;20472;-49
2022/11/01 16:38:55;;;;;;;9.73;1.80;;;;;;;15.54;70.67;100733.22;8360093;28;20037;-48
2022/11/01 16:42:58;;;;;;;8.70;1.50;;;;;;;15.43;70.83;100733.53;8369102;28;20048;-49
2022/11/01 16:47:11;;;;;;;9.88;1.50;;;;;;;15.31;71.86;100737.56;8393643;28;20032;-50
2022/11/01 16:51:12;;;;;;;8.63;1.55;;;;;;;15.14;72.63;100738.53;8388438;28;20119;-49
2022/11/01 16:55:13;;;;;;;7.38;1.77;;;;;;;15.12;73.02;100743.28;8393191;28;20036;-49
2022/11/01 16:59:36;;;;;;;12.75;1.35;;;;;;;15.05;73.45;100744.97;8380225;28;20037;-49
2022/11/01 17:03:37;;;;;;;9.13;1.30;;;;;;;14.98;73.75;100743.88;8371067;28;20063;-48
2022/11/01 17:07:38;;;;;;;14.43;1.60;;;;;;;14.90;74.34;100746.59;8359984;28;20041;-49
2022/11/01 17:11:39;;;;;;;9.48;1.55;;;;;;;14.86;74.55;100741.63;8358474;28;20103;-48
2022/11/01 17:15:43;;;;;;;9.68;1.45;;;;;;;14.80;75.04;100743.13;8357200;28;20037;-49
2022/11/01 17:19:47;;;;;;;13.38;1.40;;;;;;;14.79;74.56;100752.31;8358830;28;20044;-50
2022/11/01 17:23:51;;;;;;;8.90;1.75;;;;;;;14.69;74.76;100751.56;8357143;28;20037;-50
2022/11/01 17:27:52;;;;;;;12.60;1.80;;;;;;;14.64;75.82;100762.06;8364127;28;20079;-49
2022/11/01 17:31:52;;;;;;;6.78;1.30;;;;;;;14.52;75.63;100762.53;8358630;28;20049;-49
2022/11/01 17:35:53;;;;;;;10.52;1.80;;;;;;;14.43;76.15;100756.19;8373953;28;20112;-50
2022/11/01 17:39:54;;;;;;;8.25;1.45;;;;;;;14.36;76.42;100765.97;8374453;28;20041;-50
2022/11/01 17:43:54;;;;;;;7.95;1.77;;;;;;;14.34;76.37;100757.13;8358705;28;20040;-48
2022/11/01 17:47:56;;;;;;;8.48;1.88;;;;;;;14.36;76.46;100760.53;8357440;28;20416;-50
2022/11/01 17:51:57;;;;;;;13.77;1.98;;;;;;;14.42;76.29;100765.31;8358861;28;20499;-48
2022/11/01 17:55:57;;;;;;;10.02;1.85;;;;;;;14.54;75.47;100755.88;8357530;28;20391;-49
2022/11/01 17:59:58;;;;;;;10.90;1.40;;;;;;;14.59;74.96;100755.41;8362766;28;20479;-49
2022/11/01 18:03:59;;;;;;;6.40;1.27;;;;;;;14.62;74.90;100755.97;8356562;28;20083;-49
2022/11/01 18:08:01;;;;;;;12.68;2.00;;;;;;;14.69;74.70;100751.56;8357985;28;20041;-52
2022/11/01 18:12:25;;;;;;;11.45;1.50;;;;;;;14.74;74.53;100760.13;8357868;28;20517;-49
2022/11/01 18:16:36;;;;;;;14.13;1.75;;;;;;;14.72;74.18;100751.25;8356784;28;20169;-51
2022/11/01 18:21:06;;;;;;;10.45;1.35;;;;;;;14.69;74.60;100757.00;8356573;28;20423;-48
2022/11/01 18:25:29;;;;;;;12.07;1.45;;;;;;;14.59;75.11;100756.28;8357250;28;20041;-49
2022/11/01 18:29:29;;;;;;;13.38;1.70;;;;;;;14.39;75.96;100754.75;8364067;28;20049;-49
2022/11/01 18:33:39;;;;;;;11.80;1.40;;;;;;;14.29;76.70;100759.47;8357040;28;20063;-51
2022/11/01 18:37:46;;;;;;;10.45;1.77;;;;;;;14.31;76.51;100762.88;8356844;28;20040;-50
2022/11/01 18:41:47;;;;;;;13.85;1.75;;;;;;;14.26;76.69;100765.22;8373383;28;20045;-48
2022/11/01 18:45:48;;;;;;;10.80;1.42;;;;;;;14.15;77.30;100757.25;8357066;28;20037;-49
2022/11/01 18:49:49;;;;;;;7.18;1.42;;;;;;;14.14;77.45;100754.69;8357384;28;20175;-49
2022/11/01 18:53:55;;;;;;;15.77;1.50;;;;;;;14.08;77.86;100758.91;8357895;28;20029;-49
2022/11/01 18:57:56;;;;;;;11.88;1.52;;;;;;;14.12;77.32;100749.41;8363227;28;20079;-50
2022/11/01 19:02:07;;;;;;;11.30;1.60;;;;;;;14.13;77.17;100753.88;8357442;28;20065;-49
2022/11/01 19:06:20;;;;;;;12.35;2.50;;;;;;;14.12;77.33;100748.59;8356368;28;20494;-49
2022/11/01 19:10:22;;;;;;;12.98;2.10;;;;;;;14.07;77.56;100754.50;8357430;28;20037;-51
2022/11/01 19:14:22;;;;;;;6.90;1.23;;;;;;;14.00;77.70;100756.09;8363028;28;20045;-49
2022/11/01 19:18:23;;;;;;;7.07;1.67;;;;;;;14.07;77.85;100759.94;8363126;28;20041;-53
2022/11/01 19:22:38;;;;;;;10.07;1.65;;;;;;;13.94;78.16;100756.75;8362237;28;20061;-50
2022/11/01 19:26:41;;;;;;;13.88;2.17;;;;;;;13.73;79.12;100750.78;8359060;28;20041;-49
2022/11/01 19:30:47;;;;;;;13.25;2.05;;;;;;;13.71;79.54;100745.50;8369131;28;20090;-49
2022/11/01 19:34:50;;;;;;;8.82;1.42;;;;;;;13.66;79.73;100749.69;8350375;28;20044;-49
2022/11/01 19:38:51;;;;;;;13.95;2.40;;;;;;;13.46;80.49;100749.00;8344807;28;20616;-50